Time,TemperatureF,DewpointF,PressureIn,WindDirection,WindDirectionDegrees,WindSpeedMPH,WindSpeedGustMPH,Humidity,HourlyPrecipIn,Conditions,Clouds,dailyrainin,SoftwareType,DateUTC
2013-05-22 00:00:00,70.2,56.1,29.87,NNE,24,3.1,4.0,61,0.00,,OVC,0.00,VWS V14.00,2013-05-22 04:00:00,
2013-05-22 00:01:00,70.2,56.1,29.87,NNE,21,3.1,3.6,61,0.00,,OVC,0.00,VWS V14.00,2013-05-22 04:01:00,
2013-05-22 00:02:00,70.2,56.1,29.87,NNE,20,3.1,3.1,61,0.00,,OVC,0.00,VWS V14.00,2013-05-22 04:02:00,
2013-05-22 00:03:00,70.2,56.1,29.87,North,8,3.1,3.1,61,0.00,,OVC,0.00,VWS V14.00,2013-05-22 04:03:00,
2013-05-22 00:08:00,70.0,55.9,29.87,NNE,23,3.6,3.6,61,0.00,,OVC,0.00,VWS V14.00,2013-05-22 04:08:00,
2013-05-22 00:13:00,70.0,55.9,29.87,NNE,33,3.6,4.0,61,0.00,,OVC,0.00,VWS V14.00,2013-05-22 04:13:00,
2013-05-22 00:18:00,69.8,55.8,29.87,NNE,19,2.7,2.7,61,0.00,,OVC,0.00,VWS V14.00,2013-05-22 04:18:00,
2013-05-22 00:23:00,69.8,55.8,29.87,NE,39,3.1,3.1,61,0.00,,OVC,0.00,VWS V14.00,2013-05-22 04:23:00,
2013-05-22 00:28:00,69.6,56.0,29.87,NE,38,2.7,2.7,62,0.00,,OVC,0.00,VWS V14.00,2013-05-22 04:28:00,
2013-05-22 00:33:00,69.3,55.7,29.87,NNE,22,2.2,2.2,62,0.00,,OVC,0.00,VWS V14.00,2013-05-22 04:33:00,
2013-05-22 00:38:00,69.1,55.5,29.87,NNE,26,3.1,3.1,62,0.00,,OVC,0.00,VWS V14.00,2013-05-22 04:38:00,
2013-05-22 00:44:00,68.9,55.8,29.87,NNE,31,0.0,2.2,63,0.00,,OVC,0.00,VWS V14.00,2013-05-22 04:44:00,
2013-05-22 00:49:00,68.7,55.6,29.90,NNE,31,0.0,0.0,63,0.00,,OVC,0.00,VWS V14.00,2013-05-22 04:49:00,
2013-05-22 00:54:00,68.4,55.7,29.90,NNE,12,3.1,4.0,64,0.00,,OVC,0.00,VWS V14.00,2013-05-22 04:54:00,
2013-05-22 00:59:00,68.4,56.2,29.90,NNE,23,6.3,6.3,65,0.00,,OVC,0.00,VWS V14.00,2013-05-22 04:59:00,
2013-05-22 01:04:00,68.4,56.2,29.90,NNE,16,0.0,2.7,65,0.00,,OVC,0.00,VWS V14.00,2013-05-22 05:04:00,
2013-05-22 01:09:00,68.2,56.0,29.90,North,0,2.7,3.6,65,0.00,,OVC,0.00,VWS V14.00,2013-05-22 05:09:00,
2013-05-22 01:14:00,68.0,56.2,29.90,North,0,2.2,2.7,66,0.00,,OVC,0.00,VWS V14.00,2013-05-22 05:14:00,
2013-05-22 01:19:00,67.8,56.5,29.90,NNW,348,2.7,3.6,67,0.00,,OVC,0.00,VWS V14.00,2013-05-22 05:19:00,
2013-05-22 01:25:00,67.5,56.1,29.90,NNE,31,3.1,4.0,67,0.00,,OVC,0.00,VWS V14.00,2013-05-22 05:25:00,
2013-05-22 01:30:00,67.5,56.1,29.90,NNE,25,3.1,3.1,67,0.00,,OVC,0.00,VWS V14.00,2013-05-22 05:30:00,
2013-05-22 01:35:00,67.5,56.1,29.90,North,10,2.2,2.2,67,0.00,,OVC,0.00,VWS V14.00,2013-05-22 05:35:00,
2013-05-22 01:40:00,67.5,56.1,29.90,North,353,0.0,2.2,67,0.00,,OVC,0.00,VWS V14.00,2013-05-22 05:40:00,
2013-05-22 01:45:00,67.5,56.1,29.90,North,353,0.0,0.0,67,0.00,,OVC,0.00,VWS V14.00,2013-05-22 05:45:00,
2013-05-22 01:50:00,67.3,56.0,29.90,North,353,0.0,0.0,67,0.00,,OVC,0.00,VWS V14.00,2013-05-22 05:50:00,
2013-05-22 01:55:00,67.3,56.4,29.90,North,353,0.0,0.0,68,0.00,,OVC,0.00,VWS V14.00,2013-05-22 05:55:00,
2013-05-22 02:00:00,67.3,56.4,29.90,North,353,0.0,0.0,68,0.00,,OVC,0.00,VWS V14.00,2013-05-22 06:00:00,
2013-05-22 02:05:00,67.5,56.5,29.90,North,353,0.0,0.0,68,0.00,,OVC,0.00,VWS V14.00,2013-05-22 06:05:00,
2013-05-22 02:10:00,67.5,56.5,29.90,NNE,28,3.1,3.6,68,0.00,,OVC,0.00,VWS V14.00,2013-05-22 06:10:00,
2013-05-22 02:16:00,67.6,56.7,29.90,NNE,28,3.1,3.6,68,0.00,,OVC,0.00,VWS V14.00,2013-05-22 06:16:00,
2013-05-22 02:21:00,67.6,56.7,29.90,ENE,57,6.3,6.3,68,0.00,,OVC,0.00,VWS V14.00,2013-05-22 06:21:00,
2013-05-22 02:26:00,67.6,56.7,29.90,ENE,57,3.1,4.0,68,0.00,,OVC,0.00,VWS V14.00,2013-05-22 06:26:00,
2013-05-22 02:31:00,67.6,56.7,29.87,ENE,57,3.1,3.1,68,0.00,,OVC,0.00,VWS V14.00,2013-05-22 06:31:00,
2013-05-22 02:36:00,67.6,56.3,29.87,East,98,3.6,3.6,67,0.00,,OVC,0.00,VWS V14.00,2013-05-22 06:36:00,
2013-05-22 02:41:00,67.6,56.3,29.87,NE,35,3.6,4.9,67,0.00,,OVC,0.00,VWS V14.00,2013-05-22 06:41:00,
2013-05-22 02:46:00,67.6,55.9,29.87,NE,43,3.6,3.6,66,0.00,,OVC,0.00,VWS V14.00,2013-05-22 06:46:00,
2013-05-22 02:51:00,67.5,55.7,29.87,NE,43,3.1,3.6,66,0.00,,OVC,0.00,VWS V14.00,2013-05-22 06:51:00,
2013-05-22 02:57:00,67.3,55.1,29.87,NE,37,0.0,2.2,65,0.00,,OVC,0.00,VWS V14.00,2013-05-22 06:57:00,
2013-05-22 03:02:00,67.1,55.0,29.87,NE,37,0.0,0.0,65,0.00,,OVC,0.00,VWS V14.00,2013-05-22 07:02:00,
2013-05-22 03:07:00,66.9,55.2,29.87,NE,37,0.0,0.0,66,0.00,,OVC,0.00,VWS V14.00,2013-05-22 07:07:00,
2013-05-22 03:12:00,66.7,55.0,29.87,NE,37,0.0,0.0,66,0.00,,OVC,0.00,VWS V14.00,2013-05-22 07:12:00,
2013-05-22 03:17:00,66.6,54.9,29.87,NE,37,0.0,0.0,66,0.00,,OVC,0.00,VWS V14.00,2013-05-22 07:17:00,
2013-05-22 03:22:00,66.4,54.7,29.87,NE,37,0.0,0.0,66,0.00,,OVC,0.00,VWS V14.00,2013-05-22 07:22:00,
2013-05-22 03:27:00,66.2,54.5,29.87,NE,37,0.0,0.0,66,0.00,,OVC,0.00,VWS V14.00,2013-05-22 07:27:00,
2013-05-22 03:32:00,65.8,54.2,29.87,NE,37,0.0,0.0,66,0.00,,OVC,0.00,VWS V14.00,2013-05-22 07:32:00,
2013-05-22 03:37:00,65.7,54.0,29.87,NE,37,0.0,0.0,66,0.00,,OVC,0.00,VWS V14.00,2013-05-22 07:37:00,
2013-05-22 03:42:00,65.5,54.2,29.87,NE,37,0.0,0.0,67,0.00,,OVC,0.00,VWS V14.00,2013-05-22 07:42:00,
2013-05-22 03:47:00,65.1,53.9,29.87,NE,37,0.0,2.2,67,0.00,,OVC,0.00,VWS V14.00,2013-05-22 07:47:00,
2013-05-22 03:52:00,64.8,54.0,29.87,NE,37,0.0,0.0,68,0.00,,OVC,0.00,VWS V14.00,2013-05-22 07:52:00,
2013-05-22 03:57:00,64.4,53.6,29.87,NE,37,0.0,0.0,68,0.00,,OVC,0.00,VWS V14.00,2013-05-22 07:57:00,
2013-05-22 04:03:00,64.0,54.1,29.87,NE,37,0.0,0.0,70,0.00,,OVC,0.00,VWS V14.00,2013-05-22 08:03:00,
2013-05-22 04:08:00,63.9,53.9,29.87,NE,37,2.7,2.7,70,0.00,,OVC,0.00,VWS V14.00,2013-05-22 08:08:00,
2013-05-22 04:13:00,63.9,53.9,29.87,NE,37,2.2,2.2,70,0.00,,OVC,0.00,VWS V14.00,2013-05-22 08:13:00,
2013-05-22 04:18:00,63.9,54.3,29.87,SSW,196,3.1,4.0,71,0.00,,OVC,0.00,VWS V14.00,2013-05-22 08:18:00,
2013-05-22 04:23:00,63.5,53.5,29.87,SW,216,3.6,4.5,70,0.00,,OVC,0.00,VWS V14.00,2013-05-22 08:23:00,
2013-05-22 04:28:00,63.0,53.4,29.87,SW,218,0.0,2.2,71,0.00,,OVC,0.00,VWS V14.00,2013-05-22 08:28:00,
2013-05-22 04:33:00,62.6,53.1,29.87,SW,218,0.0,0.0,71,0.00,,OVC,0.00,VWS V14.00,2013-05-22 08:33:00,
2013-05-22 04:38:00,62.6,53.5,29.87,SW,218,0.0,0.0,72,0.00,,OVC,0.00,VWS V14.00,2013-05-22 08:38:00,
2013-05-22 04:43:00,62.4,53.3,29.87,SW,218,0.0,0.0,72,0.00,,OVC,0.00,VWS V14.00,2013-05-22 08:43:00,
2013-05-22 04:48:00,62.4,53.7,29.84,SW,218,0.0,0.0,73,0.00,,OVC,0.00,VWS V14.00,2013-05-22 08:48:00,
2013-05-22 04:53:00,62.1,53.3,29.84,SW,218,0.0,0.0,73,0.00,,OVC,0.00,VWS V14.00,2013-05-22 08:53:00,
2013-05-22 04:58:00,61.5,53.5,29.84,SW,218,2.2,2.2,75,0.00,,OVC,0.00,VWS V14.00,2013-05-22 08:58:00,
2013-05-22 05:03:00,61.0,53.7,29.84,SW,218,2.7,3.1,77,0.00,,OVC,0.00,VWS V14.00,2013-05-22 09:03:00,
2013-05-22 05:08:00,60.4,53.6,29.84,SW,218,0.0,0.0,78,0.00,,OVC,0.00,VWS V14.00,2013-05-22 09:08:00,
2013-05-22 05:13:00,60.3,53.4,29.84,SW,218,0.0,0.0,78,0.00,,OVC,0.00,VWS V14.00,2013-05-22 09:13:00,
2013-05-22 05:18:00,60.3,53.4,29.84,SW,218,4.0,4.0,78,0.00,,OVC,0.00,VWS V14.00,2013-05-22 09:18:00,
2013-05-22 05:23:00,60.3,53.4,29.84,SW,218,4.0,4.0,78,0.00,,OVC,0.00,VWS V14.00,2013-05-22 09:23:00,
2013-05-22 05:28:00,60.4,53.6,29.84,SW,218,3.1,3.6,78,0.00,,OVC,0.00,VWS V14.00,2013-05-22 09:28:00,
2013-05-22 05:34:00,60.4,53.6,29.84,SW,218,0.0,0.0,78,0.00,,OVC,0.00,VWS V14.00,2013-05-22 09:34:00,
2013-05-22 05:39:00,60.1,53.9,29.84,SW,218,2.7,2.7,80,0.00,,OVC,0.00,VWS V14.00,2013-05-22 09:39:00,
2013-05-22 05:44:00,59.5,53.4,29.84,SW,218,2.7,2.7,80,0.00,,OVC,0.00,VWS V14.00,2013-05-22 09:44:00,
2013-05-22 05:49:00,59.2,53.4,29.84,SW,218,2.2,2.7,81,0.00,,OVC,0.00,VWS V14.00,2013-05-22 09:49:00,
2013-05-22 05:54:00,59.2,53.0,29.84,SW,218,0.0,0.0,80,0.00,,OVC,0.00,VWS V14.00,2013-05-22 09:54:00,
2013-05-22 05:59:00,59.0,52.8,29.84,SW,218,3.1,3.1,80,0.00,,OVC,0.00,VWS V14.00,2013-05-22 09:59:00,
2013-05-22 06:04:00,59.2,53.4,29.84,SW,218,5.4,5.4,81,0.00,,OVC,0.00,VWS V14.00,2013-05-22 10:04:00,
2013-05-22 06:09:00,59.2,53.4,29.84,SW,220,2.2,2.7,81,0.00,,OVC,0.00,VWS V14.00,2013-05-22 10:09:00,
2013-05-22 06:14:00,59.0,53.2,29.84,SW,220,2.2,2.7,81,0.00,,OVC,0.00,VWS V14.00,2013-05-22 10:14:00,
2013-05-22 06:19:00,59.0,53.2,29.84,WSW,242,3.1,3.1,81,0.00,,OVC,0.00,VWS V14.00,2013-05-22 10:19:00,
2013-05-22 06:24:00,58.6,53.2,29.84,West,265,0.0,0.0,82,0.00,,OVC,0.00,VWS V14.00,2013-05-22 10:24:00,
2013-05-22 06:29:00,58.5,53.0,29.84,West,265,0.0,0.0,82,0.00,,OVC,0.00,VWS V14.00,2013-05-22 10:29:00,
2013-05-22 06:34:00,58.5,53.0,29.84,West,265,3.1,3.1,82,0.00,,OVC,0.00,VWS V14.00,2013-05-22 10:34:00,
2013-05-22 06:39:00,58.5,53.0,29.84,West,265,0.0,2.2,82,0.00,,OVC,0.00,VWS V14.00,2013-05-22 10:39:00,
2013-05-22 06:44:00,58.3,53.2,29.84,West,266,3.1,4.0,83,0.00,,OVC,0.00,VWS V14.00,2013-05-22 10:44:00,
2013-05-22 06:49:00,57.9,53.1,29.84,West,266,2.7,2.7,84,0.00,,OVC,0.00,VWS V14.00,2013-05-22 10:49:00,
2013-05-22 06:55:00,57.2,52.4,29.84,West,266,2.7,3.1,84,0.00,,OVC,0.00,VWS V14.00,2013-05-22 10:55:00,
2013-05-22 07:00:00,57.0,52.6,29.84,West,266,0.0,0.0,85,0.00,,OVC,0.00,VWS V14.00,2013-05-22 11:00:00,
2013-05-22 07:05:00,57.0,52.6,29.84,West,266,2.2,2.7,85,0.00,,OVC,0.00,VWS V14.00,2013-05-22 11:05:00,
2013-05-22 07:10:00,56.8,52.7,29.84,West,266,2.7,3.1,86,0.00,,OVC,0.00,VWS V14.00,2013-05-22 11:10:00,
2013-05-22 07:15:00,56.5,52.3,29.87,West,266,2.7,2.7,86,0.00,,OVC,0.00,VWS V14.00,2013-05-22 11:15:00,
2013-05-22 07:20:00,56.5,52.3,29.87,West,266,3.6,3.6,86,0.00,,OVC,0.00,VWS V14.00,2013-05-22 11:20:00,
2013-05-22 07:25:00,56.7,52.5,29.87,WNW,284,2.7,3.1,86,0.00,,OVC,0.00,VWS V14.00,2013-05-22 11:25:00,
2013-05-22 07:30:00,57.0,52.9,29.87,West,274,0.0,2.7,86,0.00,,OVC,0.00,VWS V14.00,2013-05-22 11:30:00,
2013-05-22 07:35:00,57.2,53.1,29.87,West,274,0.0,0.0,86,0.00,,OVC,0.00,VWS V14.00,2013-05-22 11:35:00,
2013-05-22 07:40:00,57.2,53.1,29.87,West,274,0.0,0.0,86,0.00,,OVC,0.00,VWS V14.00,2013-05-22 11:40:00,
2013-05-22 07:45:00,57.2,53.1,29.87,West,274,0.0,0.0,86,0.00,,OVC,0.00,VWS V14.00,2013-05-22 11:45:00,
2013-05-22 07:50:00,57.0,53.2,29.87,West,274,0.0,0.0,87,0.00,,OVC,0.00,VWS V14.00,2013-05-22 11:50:00,
2013-05-22 07:55:00,56.8,53.0,29.87,West,274,0.0,0.0,87,0.00,,OVC,0.00,VWS V14.00,2013-05-22 11:55:00,
2013-05-22 08:00:00,57.0,53.2,29.87,West,274,0.0,0.0,87,0.00,,OVC,0.00,VWS V14.00,2013-05-22 12:00:00,
2013-05-22 08:05:00,57.2,53.4,29.87,West,274,0.0,0.0,87,0.00,,OVC,0.00,VWS V14.00,2013-05-22 12:05:00,
2013-05-22 08:11:00,57.4,53.5,29.87,West,274,0.0,2.2,87,0.00,,OVC,0.00,VWS V14.00,2013-05-22 12:11:00,
2013-05-22 08:16:00,57.6,53.7,29.87,West,274,0.0,0.0,87,0.00,,OVC,0.00,VWS V14.00,2013-05-22 12:16:00,
2013-05-22 08:21:00,57.9,54.1,29.87,West,274,0.0,0.0,87,0.00,,OVC,0.00,VWS V14.00,2013-05-22 12:21:00,
2013-05-22 08:26:00,58.5,54.9,29.87,West,274,2.7,3.1,88,0.00,,OVC,0.00,VWS V14.00,2013-05-22 12:26:00,
2013-05-22 08:31:00,59.4,55.8,29.87,SW,219,3.1,3.1,88,0.00,,OVC,0.00,VWS V14.00,2013-05-22 12:31:00,
2013-05-22 08:36:00,60.3,56.7,29.87,SW,219,2.7,2.7,88,0.00,,OVC,0.00,VWS V14.00,2013-05-22 12:36:00,
2013-05-22 08:41:00,60.6,56.7,29.87,SW,219,0.0,0.0,87,0.00,,OVC,0.00,VWS V14.00,2013-05-22 12:41:00,
2013-05-22 08:46:00,61.2,57.3,29.87,SW,219,2.2,2.2,87,0.00,,OVC,0.00,VWS V14.00,2013-05-22 12:46:00,
2013-05-22 08:51:00,61.5,57.6,29.87,West,263,3.6,3.6,87,0.00,,OVC,0.00,VWS V14.00,2013-05-22 12:51:00,
2013-05-22 08:56:00,61.9,58.0,29.87,West,271,3.1,3.1,87,0.00,,OVC,0.00,VWS V14.00,2013-05-22 12:56:00,
2013-05-22 09:01:00,62.4,58.8,29.87,West,271,0.0,2.2,88,0.00,,OVC,0.00,VWS V14.00,2013-05-22 13:01:00,
2013-05-22 09:06:00,63.3,59.4,29.87,West,271,2.2,2.7,87,0.00,,OVC,0.00,VWS V14.00,2013-05-22 13:06:00,
2013-05-22 09:11:00,64.4,60.5,29.87,West,271,0.0,0.0,87,0.00,,OVC,0.00,VWS V14.00,2013-05-22 13:11:00,
2013-05-22 09:16:00,66.2,62.2,29.87,West,271,3.1,3.1,87,0.00,,OVC,0.00,VWS V14.00,2013-05-22 13:16:00,
2013-05-22 09:21:00,67.1,62.5,29.87,West,262,2.7,2.7,85,0.00,,OVC,0.00,VWS V14.00,2013-05-22 13:21:00,
2013-05-22 09:27:00,68.9,64.6,29.87,West,263,2.7,3.6,86,0.00,,OVC,0.00,VWS V14.00,2013-05-22 13:27:00,
2013-05-22 09:32:00,73.6,68.1,29.90,West,263,0.0,0.0,83,0.00,,OVC,0.00,VWS V14.00,2013-05-22 13:32:00,
2013-05-22 09:37:00,74.7,67.3,29.90,West,263,0.0,0.0,78,0.00,,OVC,0.00,VWS V14.00,2013-05-22 13:37:00,
2013-05-22 09:42:00,75.0,66.6,29.90,NE,56,2.2,3.6,75,0.00,,OVC,0.00,VWS V14.00,2013-05-22 13:42:00,
2013-05-22 09:47:00,75.2,64.8,29.90,East,89,3.1,3.6,70,0.00,,OVC,0.00,VWS V14.00,2013-05-22 13:47:00,
2013-05-22 09:52:00,75.7,64.4,29.90,East,96,2.2,2.2,68,0.00,,OVC,0.00,VWS V14.00,2013-05-22 13:52:00,
2013-05-22 09:57:00,76.1,63.0,29.90,East,101,2.7,2.7,64,0.00,,OVC,0.00,VWS V14.00,2013-05-22 13:57:00,
2013-05-22 10:02:00,75.7,60.9,29.90,NE,53,3.1,3.6,60,0.00,,OVC,0.00,VWS V14.00,2013-05-22 14:02:00,
2013-05-22 10:07:00,75.7,59.4,29.90,NE,56,5.4,6.3,57,0.00,,OVC,0.00,VWS V14.00,2013-05-22 14:07:00,
2013-05-22 10:12:00,75.9,59.1,29.90,ESE,122,3.6,5.8,56,0.00,,OVC,0.00,VWS V14.00,2013-05-22 14:12:00,
2013-05-22 10:17:00,76.5,57.0,29.90,ESE,103,6.3,6.3,51,0.00,,OVC,0.00,VWS V14.00,2013-05-22 14:17:00,
2013-05-22 10:22:00,76.8,57.3,29.90,East,101,8.3,8.7,51,0.00,,OVC,0.00,VWS V14.00,2013-05-22 14:22:00,
2013-05-22 10:27:00,77.7,58.2,29.90,ESE,118,5.8,8.1,51,0.00,,OVC,0.00,VWS V14.00,2013-05-22 14:27:00,
2013-05-22 10:32:00,78.1,56.2,29.90,ENE,59,5.8,6.3,47,0.00,,OVC,0.00,VWS V14.00,2013-05-22 14:32:00,
2013-05-22 10:37:00,77.7,55.3,29.90,East,81,5.8,7.6,46,0.00,,OVC,0.00,VWS V14.00,2013-05-22 14:37:00,
2013-05-22 10:43:00,78.3,56.4,29.90,East,97,5.8,10.1,47,0.00,,OVC,0.00,VWS V14.00,2013-05-22 14:43:00,
2013-05-22 10:48:00,79.2,57.2,29.93,ESE,102,5.8,8.7,47,0.00,,OVC,0.00,VWS V14.00,2013-05-22 14:48:00,
2013-05-22 10:53:00,80.1,57.4,29.93,ESE,106,3.6,6.3,46,0.00,,OVC,0.00,VWS V14.00,2013-05-22 14:53:00,
2013-05-22 10:58:00,80.4,57.8,29.93,ESE,114,8.7,8.7,46,0.00,,OVC,0.00,VWS V14.00,2013-05-22 14:58:00,
2013-05-22 11:03:00,80.6,57.3,29.93,ENE,75,5.4,9.6,45,0.00,,OVC,0.00,VWS V14.00,2013-05-22 15:03:00,
2013-05-22 11:08:00,80.8,56.9,29.93,East,79,7.6,8.1,44,0.00,,OVC,0.00,VWS V14.00,2013-05-22 15:08:00,
2013-05-22 11:13:00,80.6,56.7,29.93,East,90,8.3,8.7,44,0.00,,OVC,0.00,VWS V14.00,2013-05-22 15:13:00,
2013-05-22 11:18:00,80.4,57.2,29.93,ESE,114,7.6,8.3,45,0.00,,OVC,0.00,VWS V14.00,2013-05-22 15:18:00,
2013-05-22 11:23:00,80.6,56.7,29.93,East,94,5.8,6.3,44,0.00,,OVC,0.00,VWS V14.00,2013-05-22 15:23:00,
2013-05-22 11:28:00,80.8,56.2,29.93,ENE,69,8.1,10.1,43,0.00,,OVC,0.00,VWS V14.00,2013-05-22 15:28:00,
2013-05-22 11:33:00,81.0,56.4,29.93,East,97,8.1,9.2,43,0.00,,OVC,0.00,VWS V14.00,2013-05-22 15:33:00,
2013-05-22 11:39:00,81.3,56.7,29.93,ENE,76,8.7,8.7,43,0.00,,OVC,0.00,VWS V14.00,2013-05-22 15:39:00,
2013-05-22 11:44:00,81.7,57.0,29.93,ENE,76,7.6,8.7,43,0.00,,OVC,0.00,VWS V14.00,2013-05-22 15:44:00,
2013-05-22 11:49:00,82.0,57.4,29.93,East,81,8.1,10.1,43,0.00,,OVC,0.00,VWS V14.00,2013-05-22 15:49:00,
2013-05-22 11:54:00,82.6,57.2,29.93,ENE,73,5.8,8.7,42,0.00,,OVC,0.00,VWS V14.00,2013-05-22 15:54:00,
2013-05-22 11:59:00,83.1,58.3,29.93,West,260,3.6,7.2,43,0.00,,OVC,0.00,VWS V14.00,2013-05-22 15:59:00,
2013-05-22 12:04:00,83.8,59.0,29.93,ESE,108,10.5,11.0,43,0.00,,OVC,0.00,VWS V14.00,2013-05-22 16:04:00,
2013-05-22 12:09:00,84.4,58.8,29.93,SSE,157,8.7,8.7,42,0.00,,OVC,0.00,VWS V14.00,2013-05-22 16:09:00,
2013-05-22 12:14:00,85.1,58.8,29.93,SE,130,8.3,8.7,41,0.00,,OVC,0.00,VWS V14.00,2013-05-22 16:14:00,
2013-05-22 12:19:00,85.1,58.1,29.93,East,89,5.8,8.3,40,0.00,,OVC,0.00,VWS V14.00,2013-05-22 16:19:00,
2013-05-22 12:24:00,84.4,56.0,29.93,ENE,71,6.7,9.2,38,0.00,,OVC,0.00,VWS V14.00,2013-05-22 16:24:00,
2013-05-22 12:29:00,84.6,56.9,29.93,East,100,5.4,8.3,39,0.00,,OVC,0.00,VWS V14.00,2013-05-22 16:29:00,
2013-05-22 12:34:00,85.3,57.5,29.93,ESE,113,6.3,7.2,39,0.00,,OVC,0.00,VWS V14.00,2013-05-22 16:34:00,
2013-05-22 12:40:00,85.5,57.0,29.93,East,90,8.3,8.3,38,0.00,,OVC,0.00,VWS V14.00,2013-05-22 16:40:00,
2013-05-22 12:45:00,85.5,57.0,29.93,East,84,8.7,9.2,38,0.00,,OVC,0.00,VWS V14.00,2013-05-22 16:45:00,
2013-05-22 12:50:00,85.3,57.5,29.93,ESE,108,7.6,8.1,39,0.00,,OVC,0.00,VWS V14.00,2013-05-22 16:50:00,
2013-05-22 12:55:00,86.4,58.5,29.93,SE,137,5.4,8.3,39,0.00,,OVC,0.00,VWS V14.00,2013-05-22 16:55:00,
2013-05-22 13:00:00,87.4,59.5,29.93,South,185,3.6,5.8,39,0.00,,OVC,0.00,VWS V14.00,2013-05-22 17:00:00,
2013-05-22 13:05:00,88.3,59.5,29.93,SSE,157,7.6,8.1,38,0.00,,OVC,0.00,VWS V14.00,2013-05-22 17:05:00,
2013-05-22 13:10:00,88.3,58.8,29.93,SE,137,4.0,4.0,37,0.00,,OVC,0.00,VWS V14.00,2013-05-22 17:10:00,
2013-05-22 13:15:00,88.2,58.6,29.93,NE,49,3.1,4.9,37,0.00,,OVC,0.00,VWS V14.00,2013-05-22 17:15:00,
2013-05-22 13:20:00,88.2,57.9,29.93,SSE,157,5.4,8.7,36,0.00,,OVC,0.00,VWS V14.00,2013-05-22 17:20:00,
2013-05-22 13:25:00,88.5,58.2,29.93,ESE,107,5.8,7.6,36,0.00,,OVC,0.00,VWS V14.00,2013-05-22 17:25:00,
2013-05-22 13:30:00,88.7,58.3,29.93,ESE,112,5.8,5.8,36,0.00,,OVC,0.00,VWS V14.00,2013-05-22 17:30:00,
2013-05-22 13:36:00,89.1,58.7,29.93,ESE,119,5.8,10.5,36,0.00,,OVC,0.00,VWS V14.00,2013-05-22 17:36:00,
2013-05-22 13:41:00,88.9,58.5,29.93,ENE,64,5.4,8.3,36,0.00,,OVC,0.00,VWS V14.00,2013-05-22 17:41:00,
2013-05-22 13:46:00,89.1,58.7,29.93,SE,138,5.4,5.8,36,0.00,,OVC,0.00,VWS V14.00,2013-05-22 17:46:00,
2013-05-22 13:51:00,89.8,58.5,29.93,SE,124,8.3,10.1,35,0.00,,OVC,0.00,VWS V14.00,2013-05-22 17:51:00,
2013-05-22 13:56:00,89.2,58.8,29.93,NE,52,6.3,6.3,36,0.00,,OVC,0.00,VWS V14.00,2013-05-22 17:56:00,
2013-05-22 14:01:00,89.1,58.7,29.90,ENE,70,8.1,8.1,36,0.00,,OVC,0.00,VWS V14.00,2013-05-22 18:01:00,
2013-05-22 14:06:00,89.2,58.8,29.90,South,185,2.7,3.6,36,0.00,,OVC,0.00,VWS V14.00,2013-05-22 18:06:00,
2013-05-22 14:11:00,90.1,58.8,29.90,ENE,72,5.8,8.3,35,0.00,,OVC,0.00,VWS V14.00,2013-05-22 18:11:00,
2013-05-22 14:16:00,90.5,59.1,29.90,SSE,158,7.6,8.7,35,0.00,,OVC,0.00,VWS V14.00,2013-05-22 18:16:00,
2013-05-22 14:21:00,90.9,59.5,29.90,South,185,5.4,5.4,35,0.00,,OVC,0.00,VWS V14.00,2013-05-22 18:21:00,
2013-05-22 14:26:00,91.6,60.1,29.90,South,173,11.9,12.8,35,0.00,,OVC,0.00,VWS V14.00,2013-05-22 18:26:00,
2013-05-22 14:32:00,91.8,60.2,29.90,SSE,165,8.1,8.3,35,0.00,,OVC,0.00,VWS V14.00,2013-05-22 18:32:00,
2013-05-22 14:37:00,91.9,60.4,29.90,South,188,5.4,5.8,35,0.00,,OVC,0.00,VWS V14.00,2013-05-22 18:37:00,
2013-05-22 14:42:00,92.1,60.6,29.90,South,184,5.8,6.3,35,0.00,,OVC,0.00,VWS V14.00,2013-05-22 18:42:00,
2013-05-22 14:47:00,92.3,60.7,29.90,SSE,151,5.4,6.3,35,0.00,,OVC,0.00,VWS V14.00,2013-05-22 18:47:00,
2013-05-22 14:52:00,92.5,60.9,29.90,ESE,123,4.9,5.8,35,0.00,,OVC,0.00,VWS V14.00,2013-05-22 18:52:00,
2013-05-22 14:57:00,92.8,61.2,29.90,ENE,62,3.6,4.0,35,0.00,,OVC,0.00,VWS V14.00,2013-05-22 18:57:00,
2013-05-22 15:02:00,93.0,61.3,29.90,ESE,105,3.6,3.6,35,0.00,,OVC,0.00,VWS V14.00,2013-05-22 19:02:00,
2013-05-22 15:07:00,93.2,60.7,29.90,South,169,5.4,6.3,34,0.00,,OVC,0.00,VWS V14.00,2013-05-22 19:07:00,
2013-05-22 15:12:00,93.4,60.8,29.90,SE,145,4.5,5.4,34,0.00,,OVC,0.00,VWS V14.00,2013-05-22 19:12:00,
2013-05-22 15:17:00,93.6,61.0,29.90,SSW,200,2.7,5.4,34,0.00,,OVC,0.00,VWS V14.00,2013-05-22 19:17:00,
2013-05-22 15:22:00,93.6,61.0,29.90,SE,130,6.3,7.6,34,0.00,,OVC,0.00,VWS V14.00,2013-05-22 19:22:00,
2013-05-22 15:27:00,93.6,61.0,29.90,ESE,118,8.3,8.7,34,0.00,,OVC,0.00,VWS V14.00,2013-05-22 19:27:00,
2013-05-22 15:33:00,93.6,61.0,29.87,ESE,108,5.4,8.7,34,0.00,,OVC,0.00,VWS V14.00,2013-05-22 19:33:00,
2013-05-22 15:38:00,93.4,60.8,29.87,ESE,114,8.1,8.3,34,0.00,,OVC,0.00,VWS V14.00,2013-05-22 19:38:00,
2013-05-22 15:43:00,93.2,60.7,29.87,SE,124,3.6,8.7,34,0.00,,OVC,0.00,VWS V14.00,2013-05-22 19:43:00,
2013-05-22 15:48:00,93.6,61.0,29.87,SSE,167,5.8,5.8,34,0.00,,OVC,0.00,VWS V14.00,2013-05-22 19:48:00,
2013-05-22 15:53:00,93.9,61.3,29.87,SSE,158,6.3,6.3,34,0.00,,OVC,0.00,VWS V14.00,2013-05-22 19:53:00,
2013-05-22 15:58:00,93.9,60.5,29.87,SE,137,0.0,0.0,33,0.00,,OVC,0.00,VWS V14.00,2013-05-22 19:58:00,
2013-05-22 16:03:00,93.9,61.3,29.87,SE,138,6.3,6.3,34,0.00,,OVC,0.00,VWS V14.00,2013-05-22 20:03:00,
2013-05-22 16:08:00,94.3,61.6,29.87,SSE,150,6.3,6.3,34,0.00,,OVC,0.00,VWS V14.00,2013-05-22 20:08:00,
2013-05-22 16:13:00,94.5,60.9,29.87,ENE,59,2.7,5.4,33,0.00,,OVC,0.00,VWS V14.00,2013-05-22 20:13:00,
2013-05-22 16:18:00,94.3,60.8,29.84,ESE,118,7.6,10.1,33,0.00,,OVC,0.00,VWS V14.00,2013-05-22 20:18:00,
2013-05-22 16:23:00,94.6,61.1,29.84,SSW,206,3.1,3.1,33,0.00,,OVC,0.00,VWS V14.00,2013-05-22 20:23:00,
2013-05-22 16:28:00,95.0,61.4,29.84,East,89,4.9,8.1,33,0.00,,OVC,0.00,VWS V14.00,2013-05-22 20:28:00,
2013-05-22 16:33:00,95.4,61.7,29.84,South,178,7.6,7.6,33,0.00,,OVC,0.00,VWS V14.00,2013-05-22 20:33:00,
2013-05-22 16:38:00,95.4,61.7,29.84,SSW,192,6.3,7.6,33,0.00,,OVC,0.00,VWS V14.00,2013-05-22 20:38:00,
2013-05-22 16:44:00,95.4,61.7,29.84,ESE,115,9.2,9.2,33,0.00,,OVC,0.00,VWS V14.00,2013-05-22 20:44:00,
2013-05-22 16:49:00,94.8,61.3,29.84,SE,127,10.1,10.1,33,0.00,,OVC,0.00,VWS V14.00,2013-05-22 20:49:00,
2013-05-22 16:54:00,94.8,61.3,29.84,ESE,102,3.6,3.6,33,0.00,,OVC,0.00,VWS V14.00,2013-05-22 20:54:00,
2013-05-22 16:59:00,94.5,60.9,29.84,South,189,8.1,8.1,33,0.00,,OVC,0.00,VWS V14.00,2013-05-22 20:59:00,
2013-05-22 17:04:00,94.5,60.9,29.84,East,88,2.7,4.9,33,0.00,,OVC,0.00,VWS V14.00,2013-05-22 21:04:00,
2013-05-22 17:09:00,94.5,60.9,29.84,SE,129,8.1,8.1,33,0.00,,OVC,0.00,VWS V14.00,2013-05-22 21:09:00,
2013-05-22 17:14:00,94.8,61.3,29.84,SE,129,8.3,8.3,33,0.00,,OVC,0.00,VWS V14.00,2013-05-22 21:14:00,
2013-05-22 17:19:00,95.2,61.6,29.84,ESE,103,4.0,4.0,33,0.00,,OVC,0.00,VWS V14.00,2013-05-22 21:19:00,
2013-05-22 17:24:00,95.0,61.4,29.84,SE,124,10.1,11.0,33,0.00,,OVC,0.00,VWS V14.00,2013-05-22 21:24:00,
2013-05-22 17:29:00,95.0,61.4,29.84,SSW,213,8.7,10.5,33,0.00,,OVC,0.00,VWS V14.00,2013-05-22 21:29:00,
2013-05-22 17:34:00,95.2,61.6,29.81,SW,226,3.1,4.9,33,0.00,,OVC,0.00,VWS V14.00,2013-05-22 21:34:00,
2013-05-22 17:40:00,95.7,62.0,29.81,SE,140,8.7,10.1,33,0.00,,OVC,0.00,VWS V14.00,2013-05-22 21:40:00,
2013-05-22 17:45:00,95.5,61.9,29.81,East,99,8.3,8.3,33,0.00,,OVC,0.00,VWS V14.00,2013-05-22 21:45:00,
2013-05-22 17:50:00,95.4,61.7,29.81,East,92,12.8,12.8,33,0.00,,OVC,0.00,VWS V14.00,2013-05-22 21:50:00,
2013-05-22 17:55:00,95.2,61.6,29.81,SE,141,8.7,12.3,33,0.00,,OVC,0.00,VWS V14.00,2013-05-22 21:55:00,
2013-05-22 18:00:00,94.8,61.3,29.81,East,95,7.2,7.2,33,0.00,,OVC,0.00,VWS V14.00,2013-05-22 22:00:00,
2013-05-22 18:05:00,94.3,60.8,29.81,ESE,116,3.1,6.3,33,0.00,,OVC,0.00,VWS V14.00,2013-05-22 22:05:00,
2013-05-22 18:10:00,94.3,60.8,29.81,SSE,147,7.6,10.5,33,0.00,,OVC,0.00,VWS V14.00,2013-05-22 22:10:00,
2013-05-22 18:15:00,94.3,60.8,29.81,SE,128,6.7,10.1,33,0.00,,OVC,0.00,VWS V14.00,2013-05-22 22:15:00,
2013-05-22 18:21:00,94.3,60.8,29.81,SE,142,8.3,8.7,33,0.00,,OVC,0.00,VWS V14.00,2013-05-22 22:21:00,
2013-05-22 18:26:00,94.3,61.6,29.81,SE,130,4.0,8.7,34,0.00,,OVC,0.00,VWS V14.00,2013-05-22 22:26:00,
2013-05-22 18:31:00,93.9,61.3,29.78,East,97,7.6,8.7,34,0.00,,OVC,0.00,VWS V14.00,2013-05-22 22:31:00,
2013-05-22 18:36:00,93.7,61.2,29.78,SSE,150,5.8,8.3,34,0.00,,OVC,0.00,VWS V14.00,2013-05-22 22:36:00,
2013-05-22 18:41:00,93.7,61.2,29.78,ESE,103,10.1,10.1,34,0.00,,OVC,0.00,VWS V14.00,2013-05-22 22:41:00,
2013-05-22 18:46:00,93.6,61.0,29.81,SSE,150,5.4,8.3,34,0.00,,OVC,0.00,VWS V14.00,2013-05-22 22:46:00,
2013-05-22 18:51:00,93.4,60.8,29.81,SSE,155,6.3,6.3,34,0.00,,OVC,0.00,VWS V14.00,2013-05-22 22:51:00,
2013-05-22 18:56:00,93.2,60.7,29.81,SSE,151,6.3,6.3,34,0.00,,OVC,0.00,VWS V14.00,2013-05-22 22:56:00,
2013-05-22 19:01:00,93.0,61.3,29.78,SE,128,9.2,11.0,35,0.00,,OVC,0.00,VWS V14.00,2013-05-22 23:01:00,
2013-05-22 19:06:00,92.8,61.2,29.78,ESE,107,7.6,8.7,35,0.00,,OVC,0.00,VWS V14.00,2013-05-22 23:06:00,
2013-05-22 19:11:00,92.7,61.0,29.78,ESE,114,8.1,10.5,35,0.00,,OVC,0.00,VWS V14.00,2013-05-22 23:11:00,
2013-05-22 19:16:00,92.3,60.7,29.78,ESE,112,6.3,6.3,35,0.00,,OVC,0.00,VWS V14.00,2013-05-22 23:16:00,
2013-05-22 19:22:00,92.1,60.6,29.78,SE,133,11.0,11.4,35,0.00,,OVC,0.00,VWS V14.00,2013-05-22 23:22:00,
2013-05-22 19:27:00,91.8,60.2,29.78,ESE,115,8.7,8.7,35,0.00,,OVC,0.00,VWS V14.00,2013-05-22 23:27:00,
2013-05-22 19:32:00,91.8,61.0,29.78,SE,133,8.3,8.3,36,0.00,,OVC,0.00,VWS V14.00,2013-05-22 23:32:00,
2013-05-22 19:37:00,91.6,60.9,29.78,East,88,5.4,8.1,36,0.00,,OVC,0.00,VWS V14.00,2013-05-22 23:37:00,
2013-05-22 19:42:00,91.4,60.7,29.78,ESE,102,8.7,8.7,36,0.00,,OVC,0.00,VWS V14.00,2013-05-22 23:42:00,
2013-05-22 19:47:00,91.0,61.2,29.78,ESE,120,5.8,8.3,37,0.00,,OVC,0.00,VWS V14.00,2013-05-22 23:47:00,
2013-05-22 19:52:00,90.7,61.6,29.78,East,91,8.1,10.1,38,0.00,,OVC,0.00,VWS V14.00,2013-05-22 23:52:00,
2013-05-22 19:57:00,90.5,62.2,29.78,East,91,6.3,8.1,39,0.00,,OVC,0.00,VWS V14.00,2013-05-22 23:57:00,
2013-05-22 20:02:00,90.1,64.0,29.78,ESE,109,5.8,8.1,42,0.00,,OVC,0.00,VWS V14.00,2013-05-23 00:02:00,
2013-05-22 20:07:00,89.8,63.7,29.78,ESE,113,13.2,13.2,42,0.00,,OVC,0.00,VWS V14.00,2013-05-23 00:07:00,
2013-05-22 20:13:00,89.4,64.7,29.78,East,100,10.1,10.1,44,0.00,,OVC,0.00,VWS V14.00,2013-05-23 00:13:00,
2013-05-22 20:18:00,89.1,65.0,29.78,SSE,147,6.3,7.6,45,0.00,,OVC,0.00,VWS V14.00,2013-05-23 00:18:00,
2013-05-22 20:23:00,88.9,64.8,29.78,SSE,163,9.6,9.6,45,0.00,,OVC,0.00,VWS V14.00,2013-05-23 00:23:00,
2013-05-22 20:28:00,88.7,65.3,29.78,SSE,147,5.8,7.6,46,0.00,,OVC,0.00,VWS V14.00,2013-05-23 00:28:00,
2013-05-22 20:33:00,88.5,65.7,29.78,SE,141,5.4,6.3,47,0.00,,OVC,0.00,VWS V14.00,2013-05-23 00:33:00,
2013-05-22 20:38:00,88.2,65.4,29.78,SE,139,8.3,8.3,47,0.00,,OVC,0.00,VWS V14.00,2013-05-23 00:38:00,
2013-05-22 20:43:00,87.8,65.7,29.78,SE,143,8.3,8.3,48,0.00,,OVC,0.00,VWS V14.00,2013-05-23 00:43:00,
2013-05-22 20:48:00,87.4,65.9,29.81,ESE,121,7.6,8.1,49,0.00,,OVC,0.00,VWS V14.00,2013-05-23 00:48:00,
2013-05-22 20:53:00,87.1,66.2,29.81,SE,140,8.1,8.7,50,0.00,,OVC,0.00,VWS V14.00,2013-05-23 00:53:00,
2013-05-22 20:58:00,86.9,66.0,29.81,ESE,121,7.6,8.1,50,0.00,,OVC,0.00,VWS V14.00,2013-05-23 00:58:00,
2013-05-22 21:03:00,86.5,66.3,29.81,SE,132,8.3,8.3,51,0.00,,OVC,0.00,VWS V14.00,2013-05-23 01:03:00,
2013-05-22 21:08:00,86.4,66.1,29.81,SE,142,6.3,6.3,51,0.00,,OVC,0.00,VWS V14.00,2013-05-23 01:08:00,
2013-05-22 21:13:00,86.0,65.8,29.81,SE,144,2.7,5.8,51,0.00,,OVC,0.00,VWS V14.00,2013-05-23 01:13:00,
2013-05-22 21:18:00,85.6,66.0,29.81,SE,130,8.1,8.1,52,0.00,,OVC,0.00,VWS V14.00,2013-05-23 01:18:00,
2013-05-22 21:23:00,85.3,66.2,29.81,SE,127,5.4,7.6,53,0.00,,OVC,0.00,VWS V14.00,2013-05-23 01:23:00,
2013-05-22 21:28:00,84.9,66.4,29.81,ESE,112,5.4,6.3,54,0.00,,OVC,0.00,VWS V14.00,2013-05-23 01:28:00,
2013-05-22 21:33:00,84.6,66.1,29.81,SE,135,7.6,7.6,54,0.00,,OVC,0.00,VWS V14.00,2013-05-23 01:33:00,
2013-05-22 21:38:00,84.2,65.8,29.81,ESE,117,5.8,5.8,54,0.00,,OVC,0.00,VWS V14.00,2013-05-23 01:38:00,
2013-05-22 21:44:00,84.0,66.1,29.81,SE,138,4.0,5.4,55,0.00,,OVC,0.00,VWS V14.00,2013-05-23 01:44:00,
2013-05-22 21:49:00,83.8,66.0,29.81,SE,142,6.3,6.3,55,0.00,,OVC,0.00,VWS V14.00,2013-05-23 01:49:00,
2013-05-22 21:50:00,83.8,66.0,29.81,ESE,119,6.3,6.3,55,0.00,,OVC,0.00,VWS V14.00,2013-05-23 01:50:00,
2013-05-22 21:51:00,83.7,65.8,29.81,SE,131,4.0,6.3,55,0.00,,OVC,0.00,VWS V14.00,2013-05-23 01:51:00,
2013-05-22 21:52:00,83.7,65.8,29.81,SE,133,6.3,6.3,55,0.00,,OVC,0.00,VWS V14.00,2013-05-23 01:52:00,
2013-05-22 21:53:00,83.7,65.8,29.81,ESE,115,5.4,6.3,55,0.00,,OVC,0.00,VWS V14.00,2013-05-23 01:53:00,
2013-05-22 21:54:00,83.5,65.6,29.81,SSE,149,4.5,5.4,55,0.00,,OVC,0.00,VWS V14.00,2013-05-23 01:54:00,
2013-05-22 21:55:00,83.5,65.6,29.81,SE,133,3.6,4.9,55,0.00,,OVC,0.00,VWS V14.00,2013-05-23 01:55:00,
2013-05-22 21:56:00,83.5,66.2,29.81,SE,139,6.3,6.3,56,0.00,,OVC,0.00,VWS V14.00,2013-05-23 01:56:00,
2013-05-22 21:57:00,83.3,66.0,29.81,SE,145,5.4,7.6,56,0.00,,OVC,0.00,VWS V14.00,2013-05-23 01:57:00,
2013-05-22 21:58:00,83.3,66.0,29.81,SE,133,5.4,5.8,56,0.00,,OVC,0.00,VWS V14.00,2013-05-23 01:58:00,
2013-05-22 21:59:00,83.1,65.8,29.81,SE,131,5.8,5.8,56,0.00,,OVC,0.00,VWS V14.00,2013-05-23 01:59:00,
2013-05-22 22:00:00,83.1,65.8,29.84,SE,132,5.4,5.8,56,0.00,,OVC,0.00,VWS V14.00,2013-05-23 02:00:00,
2013-05-22 22:01:00,82.9,65.7,29.84,SE,145,5.4,6.3,56,0.00,,OVC,0.00,VWS V14.00,2013-05-23 02:01:00,
2013-05-22 22:02:00,82.9,65.7,29.84,SE,135,5.8,5.8,56,0.00,,OVC,0.00,VWS V14.00,2013-05-23 02:02:00,
2013-05-22 22:03:00,82.9,65.7,29.84,SSE,147,5.4,6.3,56,0.00,,OVC,0.00,VWS V14.00,2013-05-23 02:03:00,
2013-05-22 22:04:00,82.9,65.7,29.84,SE,130,5.4,6.3,56,0.00,,OVC,0.00,VWS V14.00,2013-05-23 02:04:00,
2013-05-22 22:05:00,82.8,65.5,29.84,SE,141,5.8,6.3,56,0.00,,OVC,0.00,VWS V14.00,2013-05-23 02:05:00,
2013-05-22 22:06:00,82.8,65.5,29.84,East,97,5.4,6.3,56,0.00,,OVC,0.00,VWS V14.00,2013-05-23 02:06:00,
2013-05-22 22:07:00,82.8,66.0,29.84,ESE,118,4.9,5.8,57,0.00,,OVC,0.00,VWS V14.00,2013-05-23 02:07:00,
2013-05-22 22:08:00,82.8,66.0,29.84,SE,143,5.8,8.1,57,0.00,,OVC,0.00,VWS V14.00,2013-05-23 02:08:00,
2013-05-22 22:09:00,82.6,65.8,29.84,ESE,108,6.3,6.7,57,0.00,,OVC,0.00,VWS V14.00,2013-05-23 02:09:00,
2013-05-22 22:10:00,82.6,65.8,29.84,SE,140,5.4,5.4,57,0.00,,OVC,0.00,VWS V14.00,2013-05-23 02:10:00,
2013-05-22 22:11:00,82.6,66.3,29.84,SE,140,5.4,5.4,58,0.00,,OVC,0.00,VWS V14.00,2013-05-23 02:11:00,
2013-05-22 22:12:00,82.6,66.3,29.84,SE,143,5.8,5.8,58,0.00,,OVC,0.00,VWS V14.00,2013-05-23 02:12:00,
2013-05-22 22:15:00,82.4,66.2,29.84,SE,146,6.3,8.1,58,0.00,,OVC,0.00,VWS V14.00,2013-05-23 02:15:00,
2013-05-22 22:22:00,82.2,66.5,29.84,SSE,151,4.9,4.9,59,0.00,,OVC,0.00,VWS V14.00,2013-05-23 02:22:00,
2013-05-22 22:27:00,81.9,66.1,29.84,SE,133,6.3,6.3,59,0.00,,OVC,0.00,VWS V14.00,2013-05-23 02:27:00,
2013-05-22 22:32:00,81.7,66.5,29.84,SE,143,8.1,8.1,60,0.00,,OVC,0.00,VWS V14.00,2013-05-23 02:32:00,
2013-05-22 22:38:00,81.5,66.8,29.84,SE,144,5.4,6.3,61,0.00,,OVC,0.00,VWS V14.00,2013-05-23 02:38:00,
2013-05-22 22:43:00,81.3,66.6,29.84,SE,128,3.6,5.4,61,0.00,,OVC,0.00,VWS V14.00,2013-05-23 02:43:00,
2013-05-22 22:48:00,81.3,66.6,29.84,SE,140,5.4,5.4,61,0.00,,OVC,0.00,VWS V14.00,2013-05-23 02:48:00,
2013-05-22 22:53:00,81.1,66.9,29.84,SE,138,4.9,4.9,62,0.00,,OVC,0.00,VWS V14.00,2013-05-23 02:53:00,
2013-05-22 22:58:00,81.0,66.7,29.84,SSE,147,5.8,6.3,62,0.00,,OVC,0.00,VWS V14.00,2013-05-23 02:58:00,
2013-05-22 23:03:00,81.0,67.2,29.87,SSE,159,5.4,5.4,63,0.00,,OVC,0.00,VWS V14.00,2013-05-23 03:03:00,
2013-05-22 23:08:00,80.8,67.5,29.87,SE,130,5.4,8.1,64,0.00,,OVC,0.00,VWS V14.00,2013-05-23 03:08:00,
2013-05-22 23:13:00,80.8,67.9,29.87,SSE,160,5.8,7.6,65,0.00,,OVC,0.00,VWS V14.00,2013-05-23 03:13:00,
2013-05-22 23:18:00,80.8,67.9,29.87,SE,144,8.1,8.3,65,0.00,,OVC,0.00,VWS V14.00,2013-05-23 03:18:00,
2013-05-22 23:23:00,80.8,68.4,29.87,SE,142,5.8,8.7,66,0.00,,OVC,0.00,VWS V14.00,2013-05-23 03:23:00,
2013-05-22 23:28:00,80.8,68.8,29.87,SSE,155,6.7,6.7,67,0.00,,OVC,0.00,VWS V14.00,2013-05-23 03:28:00,
2013-05-22 23:34:00,80.6,68.6,29.87,SSE,158,6.7,8.7,67,0.00,,OVC,0.00,VWS V14.00,2013-05-23 03:34:00,
2013-05-22 23:39:00,80.6,69.5,29.87,SE,139,6.3,6.3,69,0.00,,OVC,0.00,VWS V14.00,2013-05-23 03:39:00,
2013-05-22 23:44:00,80.6,69.5,29.87,SSE,167,6.7,8.3,69,0.00,,OVC,0.00,VWS V14.00,2013-05-23 03:44:00,
2013-05-22 23:49:00,80.4,69.8,29.87,SSE,148,5.4,7.6,70,0.00,,OVC,0.00,VWS V14.00,2013-05-23 03:49:00,
2013-05-22 23:54:00,80.4,69.8,29.87,SSE,150,6.3,6.3,70,0.00,,OVC,0.00,VWS V14.00,2013-05-23 03:54:00,
2013-05-22 23:59:00,80.2,70.0,29.87,SE,146,5.4,5.4,71,0.00,,OVC,0.00,VWS V14.00,2013-05-23 03:59:00,